createdAt,value
2018-11-26T00:01:02.187Z,45.80
2018-11-26T00:03:30.503Z,46.43
2018-11-26T00:05:58.841Z,47.90
2018-11-26T00:08:27.065Z,48.57
2018-11-26T00:11:59.798Z,46.67
2018-11-26T00:14:28.245Z,45.80
2018-11-26T00:16:56.519Z,45.97
2018-11-26T00:19:24.908Z,48.10
2018-11-26T00:21:53.379Z,46.60
2018-11-26T00:24:21.628Z,47.37
2018-11-26T00:26:50.041Z,45.97
2018-11-26T00:29:18.450Z,46.90
2018-11-26T00:31:46.847Z,46.00
2018-11-26T00:34:15.154Z,46.33
2018-11-26T00:36:44.157Z,47.17
2018-11-26T00:39:12.461Z,44.97
2018-11-26T00:41:40.621Z,46.27
2018-11-26T00:44:08.802Z,45.60
2018-11-26T00:46:36.905Z,44.20
2018-11-26T00:49:05.168Z,47.47
2018-11-26T00:51:33.262Z,46.87
2018-11-26T00:54:01.412Z,47.97
2018-11-26T00:56:29.531Z,46.07
2018-11-26T00:58:57.735Z,42.43
2018-11-26T01:01:25.846Z,45.43
2018-11-26T01:03:53.994Z,43.43
2018-11-26T01:06:22.167Z,42.57
2018-11-26T01:08:50.559Z,43.70
2018-11-26T01:11:18.743Z,43.07
2018-11-26T01:13:46.922Z,44.37
2018-11-26T01:16:15.052Z,42.10
2018-11-26T01:18:43.144Z,43.00
2018-11-26T01:21:11.250Z,39.30
2018-11-26T01:23:39.699Z,40.53
2018-11-26T01:26:07.973Z,40.90
2018-11-26T01:28:36.139Z,40.93
2018-11-26T01:31:04.535Z,37.33
2018-11-26T01:33:32.670Z,39.93
2018-11-26T01:36:00.951Z,40.73
2018-11-26T01:38:29.092Z,39.93
2018-11-26T01:40:57.826Z,37.43
2018-11-26T01:43:26.298Z,40.37
2018-11-26T01:45:54.389Z,38.37
2018-11-26T01:48:22.605Z,38.37
2018-11-26T01:50:50.865Z,37.47
2018-11-26T01:53:18.966Z,37.93
2018-11-26T01:55:47.093Z,38.40
2018-11-26T01:58:15.225Z,36.23
2018-11-26T02:00:43.351Z,38.53
2018-11-26T02:03:11.430Z,38.77
2018-11-26T02:05:39.544Z,37.67
2018-11-26T02:08:07.710Z,38.30
2018-11-26T02:10:35.834Z,38.13
2018-11-26T02:13:03.983Z,37.57
2018-11-26T02:15:36.913Z,37.20
2018-11-26T02:18:05.714Z,38.00
2018-11-26T02:20:33.845Z,36.57
2018-11-26T02:23:02.094Z,36.73
2018-11-26T02:25:30.267Z,36.33
2018-11-26T02:27:58.441Z,34.37
2018-11-26T02:30:26.561Z,35.20
2018-11-26T02:32:54.752Z,36.23
2018-11-26T02:35:22.891Z,34.60
2018-11-26T02:37:52.066Z,35.13
2018-11-26T02:40:28.096Z,35.80
2018-11-26T02:42:56.214Z,33.07
2018-11-26T02:45:24.612Z,34.70
2018-11-26T02:47:52.758Z,34.53
2018-11-26T02:50:20.869Z,34.60
2018-11-26T02:52:49.054Z,35.10
2018-11-26T02:55:17.310Z,34.90
2018-11-26T02:57:45.453Z,35.50
2018-11-26T03:00:13.882Z,34.53
2018-11-26T03:02:42.149Z,33.37
2018-11-26T03:05:11.621Z,34.80
2018-11-26T03:07:39.861Z,33.13
2018-11-26T03:10:09.148Z,34.03
2018-11-26T03:12:37.853Z,32.63
2018-11-26T03:15:09.830Z,34.97
2018-11-26T03:17:38.546Z,32.23
2018-11-26T03:20:08.058Z,31.23
2018-11-26T03:22:36.175Z,34.07
2018-11-26T03:25:05.459Z,33.37
2018-11-26T03:27:33.623Z,31.17
2018-11-26T03:30:01.752Z,32.00
2018-11-26T03:32:30.133Z,32.37
2018-11-26T03:34:58.429Z,33.17
2018-11-26T03:37:26.528Z,32.77
2018-11-26T03:39:54.694Z,32.80
2018-11-26T03:42:22.838Z,32.33
2018-11-26T03:44:50.982Z,32.63
2018-11-26T03:47:19.090Z,32.57
2018-11-26T03:49:47.139Z,32.73
2018-11-26T03:52:15.352Z,30.83
2018-11-26T03:54:43.447Z,33.40
2018-11-26T03:57:11.611Z,32.27
2018-11-26T03:59:39.705Z,31.80
2018-11-26T04:02:07.817Z,32.53
2018-11-26T04:04:35.897Z,33.17
2018-11-26T04:07:04.606Z,31.30
2018-11-26T04:09:32.734Z,33.70
2018-11-26T04:12:00.858Z,33.80
2018-11-26T04:14:28.959Z,34.70
2018-11-26T04:16:57.086Z,33.83
2018-11-26T04:19:25.237Z,35.20
2018-11-26T04:21:53.471Z,35.60
2018-11-26T04:24:21.552Z,34.17
2018-11-26T04:26:49.761Z,34.10
2018-11-26T04:29:17.858Z,34.47
2018-11-26T04:31:46.016Z,33.07
2018-11-26T04:34:14.110Z,33.47
2018-11-26T04:36:42.353Z,33.17
2018-11-26T04:39:10.575Z,33.20
2018-11-26T04:41:38.685Z,33.07
2018-11-26T04:44:06.866Z,34.10
2018-11-26T04:46:35.049Z,32.67
2018-11-26T04:49:03.435Z,33.67
2018-11-26T04:51:31.589Z,33.53
2018-11-26T04:54:06.325Z,33.83
2018-11-26T04:56:34.556Z,33.93
2018-11-26T04:59:02.729Z,36.07
2018-11-26T05:01:30.867Z,33.60
2018-11-26T05:03:59.100Z,35.60
2018-11-26T05:06:27.217Z,33.93
2018-11-26T05:08:55.446Z,34.63
2018-11-26T05:11:23.613Z,33.20
2018-11-26T05:13:51.766Z,34.93
2018-11-26T05:16:19.915Z,33.10
2018-11-26T05:18:48.020Z,33.33
2018-11-26T05:21:16.238Z,34.33
2018-11-26T05:23:45.355Z,33.33
2018-11-26T05:26:13.501Z,30.67
2018-11-26T05:28:41.734Z,33.87
2018-11-26T05:31:09.914Z,34.13
2018-11-26T05:33:38.101Z,31.90
2018-11-26T05:36:06.288Z,32.37
2018-11-26T05:38:34.413Z,32.13
2018-11-26T05:41:02.752Z,31.77
2018-11-26T05:43:31.172Z,31.77
2018-11-26T05:45:59.639Z,33.03
2018-11-26T05:48:27.756Z,31.20
2018-11-26T05:50:55.887Z,30.87
2018-11-26T05:53:24.096Z,34.17
2018-11-26T05:55:52.254Z,32.60
2018-11-26T05:58:21.104Z,29.80
2018-11-26T06:00:49.280Z,32.00
2018-11-26T06:03:17.430Z,31.87
2018-11-26T06:05:45.633Z,30.23
2018-11-26T06:08:13.775Z,33.50
2018-11-26T06:10:42.120Z,31.00
2018-11-26T06:13:10.326Z,30.63
2018-11-26T06:15:38.481Z,33.23
2018-11-26T06:18:06.868Z,31.43
2018-11-26T06:20:35.033Z,30.80
2018-11-26T06:23:03.193Z,30.70
2018-11-26T06:25:31.386Z,31.27
2018-11-26T06:27:59.527Z,29.80
2018-11-26T06:30:27.645Z,32.20
2018-11-26T06:32:55.820Z,30.83
2018-11-26T06:35:24.320Z,34.07
2018-11-26T06:37:52.501Z,33.77
2018-11-26T06:40:20.730Z,31.63
2018-11-26T06:42:48.875Z,31.07
2018-11-26T06:45:20.214Z,32.13
2018-11-26T06:47:48.451Z,33.47
2018-11-26T06:50:17.797Z,32.23
2018-11-26T06:52:46.144Z,33.43
2018-11-26T06:55:15.561Z,32.87
2018-11-26T06:57:43.818Z,30.13
2018-11-26T07:00:13.193Z,34.10
2018-11-26T07:02:41.650Z,32.13
2018-11-26T07:05:16.767Z,32.17
2018-11-26T07:07:44.895Z,31.57
2018-11-26T07:10:13.738Z,32.10
2018-11-26T07:12:42.006Z,31.23
2018-11-26T07:15:13.680Z,30.40
2018-11-26T07:17:42.206Z,31.73
2018-11-26T07:20:12.682Z,29.83
2018-11-26T07:22:40.785Z,30.87
2018-11-26T07:25:11.192Z,30.13
2018-11-26T07:27:39.331Z,30.03
2018-11-26T07:30:15.048Z,29.00
2018-11-26T07:32:43.389Z,30.20
2018-11-26T07:35:12.157Z,30.27
2018-11-26T07:37:40.481Z,31.53
2018-11-26T07:40:12.674Z,31.83
2018-11-26T07:42:42.566Z,32.17
2018-11-26T07:45:12.586Z,32.37
2018-11-26T07:47:41.239Z,30.03
2018-11-26T07:50:14.785Z,29.50
2018-11-26T07:52:42.903Z,28.03
2018-11-26T07:55:13.227Z,30.03
2018-11-26T07:57:41.407Z,32.57
2018-11-26T08:00:13.006Z,30.23
2018-11-26T08:02:41.763Z,29.17
2018-11-26T08:05:11.218Z,30.07
2018-11-26T08:07:39.331Z,30.60
2018-11-26T08:10:10.293Z,30.07
2018-11-26T08:12:38.427Z,31.83
2018-11-26T08:15:09.446Z,30.80
2018-11-26T08:17:37.587Z,28.70
2018-11-26T08:20:06.906Z,31.10
2018-11-26T08:22:35.295Z,30.33
2018-11-26T08:25:04.566Z,30.17
2018-11-26T08:27:32.700Z,31.60
2018-11-26T08:30:00.799Z,30.83
2018-11-26T08:32:34.006Z,31.13
2018-11-26T08:34:57.067Z,30.53
2018-11-26T08:37:25.174Z,31.17
2018-11-26T08:39:53.291Z,31.70
2018-11-26T08:42:21.513Z,30.00
2018-11-26T08:44:49.654Z,30.70
2018-11-26T08:47:17.719Z,30.60
2018-11-26T08:49:46.148Z,30.70
2018-11-26T08:52:14.262Z,31.27
2018-11-26T08:54:42.476Z,29.10
2018-11-26T08:57:10.567Z,30.57
2018-11-26T08:59:38.734Z,30.53
2018-11-26T09:02:06.838Z,29.90
2018-11-26T09:04:35.493Z,30.50
2018-11-26T09:07:04.010Z,30.40
2018-11-26T09:09:32.956Z,28.67
2018-11-26T09:12:00.353Z,29.33
2018-11-26T09:14:28.634Z,29.13
2018-11-26T09:16:56.805Z,29.00
2018-11-26T09:19:31.451Z,30.60
2018-11-26T09:21:59.612Z,28.83
2018-11-26T09:24:27.736Z,28.43
2018-11-26T09:26:55.827Z,29.30
2018-11-26T09:29:23.961Z,29.27
2018-11-26T09:31:52.499Z,29.20
2018-11-26T09:34:20.690Z,31.50
2018-11-26T09:36:48.886Z,29.20
2018-11-26T09:39:17.020Z,29.50
2018-11-26T09:41:45.313Z,30.80
2018-11-26T09:44:13.413Z,32.40
2018-11-26T09:46:41.812Z,31.50
2018-11-26T09:49:09.906Z,31.87
2018-11-26T09:51:42.221Z,29.60
2018-11-26T09:54:06.303Z,31.63
2018-11-26T09:56:34.454Z,31.83
2018-11-26T09:59:02.617Z,31.07
2018-11-26T10:01:30.822Z,33.10
2018-11-26T10:03:58.983Z,32.47
2018-11-26T10:06:27.226Z,33.80
2018-11-26T10:08:55.333Z,33.00
2018-11-26T10:11:23.507Z,31.97
2018-11-26T10:13:51.924Z,31.63
2018-11-26T10:16:20.032Z,31.87
2018-11-26T10:18:48.264Z,31.27
2018-11-26T10:21:16.412Z,32.30
2018-11-26T10:23:44.513Z,31.20
2018-11-26T10:26:12.683Z,29.93
2018-11-26T10:28:40.950Z,30.43
2018-11-26T10:31:09.075Z,29.53
2018-11-26T10:33:37.298Z,29.73
2018-11-26T10:36:05.420Z,29.73
2018-11-26T10:38:33.572Z,29.20
2018-11-26T10:41:01.760Z,29.80
2018-11-26T10:43:29.928Z,28.77
2018-11-26T10:45:58.014Z,28.27
2018-11-26T10:48:26.175Z,30.20
2018-11-26T10:50:54.317Z,26.70
2018-11-26T10:53:22.500Z,28.87
2018-11-26T10:55:50.582Z,28.87
2018-11-26T10:58:18.698Z,27.03
2018-11-26T11:00:47.095Z,26.37
2018-11-26T11:03:15.236Z,27.27
2018-11-26T11:05:43.618Z,27.80
2018-11-26T11:08:11.745Z,27.77
2018-11-26T11:10:40.190Z,26.67
2018-11-26T11:13:08.017Z,27.47
2018-11-26T11:15:36.687Z,27.27
2018-11-26T11:18:06.281Z,27.27
2018-11-26T11:20:34.670Z,26.63
2018-11-26T11:23:02.867Z,28.33
2018-11-26T11:25:31.047Z,25.87
2018-11-26T11:27:59.170Z,27.47
2018-11-26T11:30:27.306Z,26.80
2018-11-26T11:32:55.472Z,25.83
2018-11-26T11:35:23.593Z,26.10
2018-11-26T11:37:51.719Z,27.37
2018-11-26T11:40:27.457Z,27.57
2018-11-26T11:42:56.093Z,25.97
2018-11-26T11:45:24.777Z,26.30
2018-11-26T11:47:52.867Z,28.20
2018-11-26T11:50:21.018Z,27.23
2018-11-26T11:52:49.211Z,27.70
2018-11-26T11:55:21.362Z,27.40
2018-11-26T11:57:49.865Z,27.80
2018-11-26T12:00:34.971Z,26.67
2018-11-26T12:03:12.116Z,27.57
2018-11-26T12:05:40.205Z,27.40
2018-11-26T12:08:08.545Z,28.50
2018-11-26T12:10:36.706Z,25.80
2018-11-26T12:13:06.151Z,27.23
2018-11-26T12:15:34.988Z,26.40
2018-11-26T12:18:03.097Z,26.67
2018-11-26T12:20:31.279Z,27.80
2018-11-26T12:22:59.472Z,27.27
2018-11-26T12:25:28.253Z,27.53
2018-11-26T12:27:56.375Z,27.87
2018-11-26T12:30:26.554Z,26.63
2018-11-26T12:32:54.335Z,26.90
2018-11-26T12:35:22.477Z,27.07
2018-11-26T12:37:50.942Z,27.13
2018-11-26T12:40:23.257Z,27.90
2018-11-26T12:42:52.872Z,26.30
2018-11-26T12:45:26.291Z,26.10
2018-11-26T12:47:54.738Z,28.30
2018-11-26T12:50:22.834Z,26.67
2018-11-26T12:52:50.984Z,27.63
2018-11-26T12:55:20.321Z,26.83
2018-11-26T12:57:49.102Z,27.27
2018-11-26T13:00:18.267Z,27.10
2018-11-26T13:02:48.825Z,27.63
2018-11-26T13:05:17.933Z,26.83
2018-11-26T13:07:46.115Z,28.47
2018-11-26T13:10:16.150Z,27.50
2018-11-26T13:12:44.876Z,26.80
2018-11-26T13:15:17.126Z,26.90
2018-11-26T13:17:45.469Z,25.73
2018-11-26T13:20:14.726Z,25.87
2018-11-26T13:22:43.188Z,28.57
2018-11-26T13:25:16.245Z,26.63
2018-11-26T13:30:29.209Z,25.00
2018-11-26T13:32:59.973Z,26.53
2018-11-26T13:35:28.283Z,27.80
2018-11-26T13:37:56.437Z,28.20
2018-11-26T13:40:24.607Z,26.77
2018-11-26T13:42:52.791Z,28.27
2018-11-26T13:45:55.845Z,27.50
2018-11-26T13:48:24.010Z,27.83
2018-11-26T13:50:54.580Z,27.50
2018-11-26T13:53:22.686Z,27.10
2018-11-26T13:55:50.797Z,27.10
2018-11-26T13:58:18.874Z,27.17
2018-11-26T14:00:47.026Z,27.70
2018-11-26T14:03:15.178Z,26.87
2018-11-26T14:05:43.515Z,27.43
2018-11-26T14:08:11.676Z,27.27
2018-11-26T14:10:39.859Z,26.03
2018-11-26T14:13:11.752Z,28.87
2018-11-26T14:15:41.260Z,27.77
2018-11-26T14:18:09.409Z,28.17
2018-11-26T14:20:37.611Z,27.10
2018-11-26T14:23:06.773Z,27.20
2018-11-26T14:25:34.905Z,25.93
2018-11-26T14:28:03.132Z,27.27
2018-11-26T14:30:31.243Z,27.63
2018-11-26T14:32:59.405Z,25.70
2018-11-26T14:35:27.821Z,26.77
2018-11-26T14:37:59.371Z,28.70
2018-11-26T14:40:38.583Z,29.23
2018-11-26T14:43:09.560Z,28.93
2018-11-26T14:45:40.258Z,28.87
2018-11-26T14:50:41.103Z,31.93
2018-11-26T14:53:16.831Z,30.70
2018-11-26T14:55:45.333Z,31.43
2018-11-26T14:58:13.938Z,31.33
2018-11-26T15:00:42.208Z,30.83
2018-11-26T15:03:10.652Z,34.00
2018-11-26T15:05:39.047Z,32.17
2018-11-26T15:08:07.224Z,35.57
2018-11-26T15:10:35.414Z,35.03
2018-11-26T15:13:04.049Z,35.60
2018-11-26T15:15:32.179Z,34.80
2018-11-26T15:18:00.889Z,36.40
2018-11-26T15:20:29.162Z,35.17
2018-11-26T15:22:58.440Z,34.50
2018-11-26T15:25:28.775Z,34.33
2018-11-26T15:28:06.126Z,33.73
2018-11-26T15:30:34.427Z,34.37
2018-11-26T15:33:02.561Z,32.60
2018-11-26T15:35:30.740Z,34.63
2018-11-26T15:37:58.909Z,34.03
2018-11-26T15:40:27.116Z,33.93
2018-11-26T15:42:56.208Z,32.40
2018-11-26T15:45:24.725Z,33.80
2018-11-26T15:47:53.981Z,34.03
2018-11-26T15:50:22.164Z,33.00
2018-11-26T15:52:50.344Z,33.10
2018-11-26T15:55:19.507Z,31.87
2018-11-26T15:57:47.940Z,36.10
2018-11-26T16:00:19.053Z,32.80
2018-11-26T16:02:47.326Z,33.80
2018-11-26T16:05:17.041Z,31.57
2018-11-26T16:07:45.771Z,34.33
2018-11-26T16:10:14.651Z,32.73
2018-11-26T16:12:44.186Z,32.80
2018-11-26T16:15:21.247Z,33.33
2018-11-26T16:17:50.083Z,32.70
2018-11-26T16:20:19.857Z,34.10
2018-11-26T16:22:48.362Z,35.37
2018-11-26T16:25:17.973Z,34.40
2018-11-26T16:27:46.143Z,34.57
2018-11-26T16:30:15.654Z,35.63
2018-11-26T16:32:45.485Z,32.47
2018-11-26T16:35:22.547Z,33.30
2018-11-26T16:37:50.725Z,33.93
2018-11-26T16:40:18.882Z,35.23
2018-11-26T16:42:47.092Z,34.90
2018-11-26T16:45:19.205Z,33.30
2018-11-26T16:47:49.730Z,34.37
2018-11-26T16:50:20.077Z,36.57
2018-11-26T16:52:48.194Z,37.47
2018-11-26T16:55:16.459Z,36.57
2018-11-26T16:57:44.680Z,33.03
2018-11-26T17:00:16.154Z,34.23
2018-11-26T17:02:44.899Z,35.93
2018-11-26T17:05:15.492Z,34.20
2018-11-26T17:07:43.596Z,35.93
2018-11-26T17:10:11.913Z,33.90
2018-11-26T17:12:40.473Z,37.50
2018-11-26T17:15:16.189Z,33.80
2018-11-26T17:17:44.426Z,34.47
2018-11-26T17:20:14.511Z,35.70
2018-11-26T17:22:43.853Z,35.50
2018-11-26T17:25:12.897Z,34.37
2018-11-26T17:27:41.719Z,33.97
2018-11-26T17:30:19.350Z,35.47
2018-11-26T17:32:49.871Z,34.90
2018-11-26T17:35:18.018Z,35.43
2018-11-26T17:37:46.228Z,33.63
2018-11-26T17:40:15.649Z,33.70
2018-11-26T17:42:43.808Z,34.27
2018-11-26T17:45:12.952Z,35.37
2018-11-26T17:47:42.501Z,33.63
2018-11-26T17:50:17.177Z,33.67
2018-11-26T17:52:45.421Z,30.67
2018-11-26T17:55:13.555Z,33.47
2018-11-26T17:57:42.007Z,34.77
2018-11-26T18:00:14.867Z,33.27
2018-11-26T18:02:44.037Z,33.40
2018-11-26T18:05:20.223Z,34.67
2018-11-26T18:07:53.375Z,34.43
2018-11-26T18:10:23.376Z,34.03
2018-11-26T18:12:51.662Z,33.03
2018-11-26T18:15:20.329Z,33.43
2018-11-26T18:17:48.463Z,33.07
2018-11-26T18:20:18.074Z,32.60
2018-11-26T18:22:48.673Z,32.73
2018-11-26T18:25:17.404Z,31.73
2018-11-26T18:27:49.503Z,32.10
2018-11-26T18:30:19.503Z,32.43
2018-11-26T18:32:47.630Z,30.47
2018-11-26T18:35:16.205Z,34.30
2018-11-26T18:37:44.299Z,33.03
2018-11-26T18:40:13.913Z,35.07
2018-11-26T18:42:42.417Z,32.37
2018-11-26T18:45:15.078Z,31.43
2018-11-26T18:47:44.091Z,32.03
2018-11-26T18:50:20.549Z,33.07
2018-11-26T18:52:49.895Z,32.50
2018-11-26T18:55:18.390Z,30.57
2018-11-26T18:57:46.551Z,32.50
2018-11-26T19:00:28.128Z,32.10
2018-11-26T19:02:56.787Z,32.67
2018-11-26T19:05:24.987Z,31.63
2018-11-26T19:07:53.142Z,32.00
2018-11-26T19:10:26.458Z,31.77
2018-11-26T19:12:57.767Z,32.27
2018-11-26T19:15:29.950Z,32.60
2018-11-26T19:18:03.797Z,33.00
2018-11-26T19:20:31.874Z,31.83
2018-11-26T19:23:00.125Z,33.50
2018-11-26T19:25:28.273Z,32.50
2018-11-26T19:27:56.495Z,32.67
2018-11-26T19:30:24.780Z,32.87
2018-11-26T19:32:52.902Z,34.00
2018-11-26T19:35:21.019Z,33.33
2018-11-26T19:37:49.214Z,32.70
2018-11-26T19:40:17.477Z,31.23
2018-11-26T19:42:46.077Z,32.97
2018-11-26T19:45:16.215Z,32.40
2018-11-26T19:47:44.686Z,34.53
2018-11-26T19:50:17.218Z,33.80
2018-11-26T19:52:46.413Z,33.57
2018-11-26T19:55:20.883Z,33.07
2018-11-26T19:57:49.755Z,32.40
2018-11-26T20:00:22.308Z,33.97
2018-11-26T20:02:54.274Z,35.00
2018-11-26T20:05:24.907Z,36.00
2018-11-26T20:07:53.167Z,32.87
2018-11-26T20:10:21.354Z,35.03
2018-11-26T20:12:49.587Z,34.60
2018-11-26T20:15:17.907Z,31.33
2018-11-26T20:17:48.000Z,33.73
2018-11-26T20:20:16.329Z,34.90
2018-11-26T20:22:44.686Z,36.33
2018-11-26T20:25:14.466Z,32.13
2018-11-26T20:27:42.903Z,35.37
2018-11-26T20:30:12.431Z,34.07
2018-11-26T20:32:42.244Z,35.47
2018-11-26T20:35:10.959Z,34.30
2018-11-26T20:37:39.108Z,34.37
2018-11-26T20:40:11.965Z,35.50
2018-11-26T20:42:43.236Z,34.23
2018-11-26T20:45:12.990Z,34.43
2018-11-26T20:47:41.270Z,35.03
2018-11-26T20:50:12.358Z,35.17
2018-11-26T20:52:40.640Z,34.60
2018-11-26T20:55:11.664Z,32.10
2018-11-26T20:57:39.964Z,33.83
2018-11-26T21:00:16.428Z,33.97
2018-11-26T21:02:45.748Z,35.67
2018-11-26T21:05:14.346Z,31.97
2018-11-26T21:07:42.686Z,33.80
2018-11-26T21:10:12.052Z,34.13
2018-11-26T21:12:40.250Z,33.87
2018-11-26T21:15:12.924Z,35.37
2018-11-26T21:17:41.794Z,34.40
2018-11-26T21:20:14.666Z,32.47
2018-11-26T21:22:42.920Z,34.83
2018-11-26T21:25:13.494Z,32.63
2018-11-26T21:27:41.952Z,33.60
2018-11-26T21:30:18.099Z,33.03
2018-11-26T21:32:46.331Z,31.33
2018-11-26T21:35:15.604Z,30.53
2018-11-26T21:37:44.988Z,29.73
2018-11-26T21:40:20.041Z,31.20
2018-11-26T21:42:43.418Z,30.57
2018-11-26T21:45:20.288Z,31.63
2018-11-26T21:47:48.630Z,31.23
2018-11-26T21:50:16.756Z,29.00
2018-11-26T21:52:45.056Z,30.27
2018-11-26T21:55:15.542Z,29.27
2018-11-26T21:57:43.645Z,28.00
2018-11-26T22:00:15.541Z,30.70
2018-11-26T22:02:43.679Z,30.83
2018-11-26T22:05:11.890Z,29.47
2018-11-26T22:07:40.290Z,29.10
2018-11-26T22:10:10.449Z,27.70
2018-11-26T22:12:38.692Z,31.47
2018-11-26T22:15:08.748Z,30.60
2018-11-26T22:17:37.566Z,29.67
2018-11-26T22:20:10.071Z,28.87
2018-11-26T22:22:38.175Z,28.80
2018-11-26T22:25:07.591Z,29.37
2018-11-26T22:27:35.810Z,30.23
2018-11-26T22:30:07.875Z,28.30
2018-11-26T22:32:36.000Z,27.90
2018-11-26T22:35:04.721Z,27.33
2018-11-26T22:37:32.842Z,28.67
2018-11-26T22:40:01.273Z,26.87
2018-11-26T22:42:30.076Z,28.03
2018-11-26T22:44:58.368Z,28.87
2018-11-26T22:47:26.882Z,29.50
2018-11-26T22:49:55.497Z,28.43
2018-11-26T22:52:24.097Z,28.20
2018-11-26T22:54:52.239Z,27.60
2018-11-26T22:57:21.854Z,27.23
2018-11-26T22:59:50.278Z,25.20
2018-11-26T23:02:18.708Z,25.77
2018-11-26T23:04:47.052Z,25.80
2018-11-26T23:07:15.388Z,28.03
2018-11-26T23:09:44.591Z,27.03
2018-11-26T23:12:12.792Z,26.63
2018-11-26T23:14:41.340Z,26.23
2018-11-26T23:17:09.821Z,25.93
2018-11-26T23:19:38.014Z,28.37
2018-11-26T23:22:06.501Z,26.60
2018-11-26T23:24:34.684Z,27.07
2018-11-26T23:27:03.122Z,27.67
2018-11-26T23:29:31.386Z,26.13
2018-11-26T23:32:00.104Z,27.43
2018-11-26T23:34:28.657Z,26.53
2018-11-26T23:36:58.163Z,27.83
2018-11-26T23:39:27.364Z,27.20
2018-11-26T23:41:54.965Z,26.93
2018-11-26T23:44:23.182Z,26.50
2018-11-26T23:46:51.593Z,27.80
2018-11-26T23:49:19.776Z,27.23
2018-11-26T23:51:47.925Z,26.67
2018-11-26T23:54:16.077Z,27.57
2018-11-26T23:56:44.287Z,25.87
2018-11-26T23:59:12.738Z,25.73
